Time;durP1;ratioP1;P1;durP2;ratioP2;P2;SDS_P1;SDS_P2;PMS_P1;PMS_P2;Temp;Humidity;BMP_temperature;BMP_pressure;BME280_temperature;BME280_humidity;BME280_pressure;Samples;Min_cycle;Max_cycle;Signal;HPM_P1;HPM_P2
2023/12/10 00:02:18;;;;;;;0.80;0.80;;;;;7.40;94918.00;;;;5075236;28;20215;-63
2023/12/10 00:04:46;;;;;;;3.73;2.30;;;8.10;82.20;7.30;94914.00;;;;5075340;28;20194;-62
2023/12/10 00:07:13;;;;;;;2.87;1.87;;;8.20;81.10;7.40;94906.00;;;;5075031;28;20675;-62
2023/12/10 00:09:40;;;;;;;2.87;1.60;;;8.20;80.20;7.40;94921.00;;;;5074882;28;20302;-63
2023/12/10 00:12:09;;;;;;;1.67;0.97;;;;;7.50;94940.00;;;;5074844;28;20211;-63
2023/12/10 00:14:37;;;;;;;2.73;1.80;;;8.30;80.40;7.50;94934.00;;;;5075032;28;20277;-62
2023/12/10 00:17:04;;;;;;;13.23;1.90;;;8.30;81.30;7.50;94951.00;;;;5075414;28;20187;-62
2023/12/10 00:19:33;;;;;;;5.83;1.60;;;8.20;81.70;7.40;94928.00;;;;5074946;28;20659;-62
2023/12/10 00:22:00;;;;;;;12.67;2.30;;;;;7.40;94936.00;;;;5074804;28;20297;-62
2023/12/10 00:24:27;;;;;;;4.03;1.73;;;8.30;79.00;7.50;94925.00;;;;5074694;28;20659;-62
2023/12/10 00:26:55;;;;;;;1.70;1.47;;;8.20;79.10;7.50;94935.00;;;;5075167;28;20266;-62
2023/12/10 00:29:23;;;;;;;0.60;0.60;;;8.30;80.90;7.40;94933.00;;;;5074761;28;20215;-63
2023/12/10 00:31:50;;;;;;;2.60;1.70;;;8.20;81.30;7.40;94940.00;;;;5074477;28;20206;-63
2023/12/10 00:34:17;;;;;;;4.63;1.30;;;8.20;77.50;7.40;94940.00;;;;5074703;28;20229;-62
2023/12/10 00:36:47;;;;;;;1.60;1.50;;;8.20;77.80;7.50;94961.00;;;;5074423;28;20274;-62
2023/12/10 00:39:15;;;;;;;1.73;1.63;;;;;7.40;94959.00;;;;5074638;28;20260;-62
2023/12/10 00:41:42;;;;;;;11.03;2.67;;;8.30;76.90;7.50;94959.00;;;;5074279;28;20221;-62
2023/12/10 00:44:09;;;;;;;0.80;0.77;;;8.30;78.40;7.50;94960.00;;;;5074385;28;20219;-62
2023/12/10 00:46:37;;;;;;;0.73;0.73;;;8.30;77.90;7.50;94974.00;;;;5074306;28;20194;-62
2023/12/10 00:49:05;;;;;;;1.30;1.20;;;8.30;88.50;7.40;94949.00;;;;5074748;28;20221;-62
2023/12/10 00:51:32;;;;;;;0.53;0.53;;;8.20;77.40;7.40;94990.00;;;;5073456;28;20294;-62
2023/12/10 00:53:59;;;;;;;0.83;0.83;;;;;7.40;94970.00;;;;5072753;28;20289;-63
2023/12/10 00:56:26;;;;;;;4.23;2.47;;;8.20;77.60;7.40;94987.00;;;;5074151;28;20192;-63
2023/12/10 00:58:53;;;;;;;0.87;0.87;;;8.20;74.70;7.40;95016.00;;;;5074028;28;20191;-62
2023/12/10 01:01:21;;;;;;;3.47;2.40;;;8.20;76.50;7.40;95005.00;;;;5073882;28;20194;-62
2023/12/10 01:03:49;;;;;;;1.97;1.77;;;8.20;76.50;7.30;94975.00;;;;5073932;28;20257;-62
2023/12/10 01:06:16;;;;;;;0.83;0.83;;;8.20;87.20;7.30;94997.00;;;;5072613;28;20212;-62
2023/12/10 01:08:44;;;;;;;7.43;4.03;;;8.10;75.50;7.30;95003.00;;;;5073803;28;20194;-63
2023/12/10 01:11:11;;;;;;;6.43;2.53;;;8.10;76.00;7.20;95018.00;;;;5073691;28;20378;-62
2023/12/10 01:13:41;;;;;;;13.73;1.83;;;;;7.30;95050.00;;;;5072482;28;20209;-62
2023/12/10 01:16:12;;;;;;;2.33;1.90;;;;;7.40;95035.00;;;;5073679;28;20241;-62
2023/12/10 01:18:40;;;;;;;2.90;2.10;;;;;7.40;95031.00;;;;5074122;28;20186;-62
2023/12/10 01:21:09;;;;;;;0.80;0.80;;;;;7.40;95060.00;;;;5073966;28;20546;-62
2023/12/10 01:23:36;;;;;;;1.37;1.23;;;8.20;72.50;7.40;95029.00;;;;5073615;28;20690;-62
2023/12/10 01:26:06;;;;;;;1.27;1.17;;;8.10;73.70;7.30;95036.00;;;;5073462;28;20271;-62
2023/12/10 01:28:33;;;;;;;6.03;1.87;;;8.10;72.50;7.30;95039.00;;;;5073530;28;20201;-62
2023/12/10 01:31:00;;;;;;;2.07;1.73;;;8.10;72.60;7.30;95046.00;;;;5073435;28;20218;-62
2023/12/10 01:33:27;;;;;;;0.90;0.90;;;8.10;71.50;7.40;95073.00;;;;5073357;28;20298;-62
2023/12/10 01:35:54;;;;;;;2.10;1.47;;;8.10;71.50;7.40;95068.00;;;;5073426;28;20215;-62
2023/12/10 01:38:23;;;;;;;7.10;1.80;;;8.10;71.70;7.40;95052.00;;;;5073399;28;20190;-61
2023/12/10 01:40:50;;;;;;;0.50;0.50;;;8.20;71.70;7.50;95073.00;;;;5073696;28;20213;-61
2023/12/10 01:43:18;;;;;;;1.10;1.10;;;8.20;72.50;7.40;95052.00;;;;5073298;28;20205;-62
2023/12/10 01:45:50;;;;;;;0.50;0.50;;;;;7.30;95058.00;;;;5073379;28;20187;-62
2023/12/10 01:48:20;;;;;;;2.03;1.93;;;8.20;72.00;7.50;95059.00;;;;5073812;28;20241;-62
2023/12/10 01:50:48;;;;;;;2.13;1.93;;;8.20;71.80;7.30;95070.00;;;;5073106;28;20225;-62
2023/12/10 01:53:17;;;;;;;0.53;0.53;;;8.10;73.40;7.30;95083.00;;;;5073192;28;20210;-62
2023/12/10 01:55:46;;;;;;;1.10;0.93;;;8.10;74.80;7.10;95079.00;;;;5073223;28;20191;-62
2023/12/10 01:58:13;;;;;;;3.47;1.23;;;8.00;75.70;7.20;95083.00;;;;5073524;28;20219;-62
2023/12/10 02:00:42;;;;;;;4.23;1.53;;;8.00;75.10;7.20;95071.00;;;;5073165;28;20607;-62
2023/12/10 02:03:10;;;;;;;3.70;0.93;;;;;7.20;95090.00;;;;5072966;28;20698;-62
2023/12/10 02:05:37;;;;;;;0.70;0.70;;;7.80;76.30;7.00;95126.00;;;;5073217;28;20222;-62
2023/12/10 02:08:04;;;;;;;0.90;0.90;;;7.90;75.90;7.10;95110.00;;;;5073120;28;20258;-63
2023/12/10 02:10:32;;;;;;;0.60;0.60;;;7.90;77.00;7.10;95127.00;;;;5072967;28;20215;-63
2023/12/10 02:13:00;;;;;;;7.30;2.83;;;7.90;76.70;7.20;95141.00;;;;5071698;28;20229;-63
2023/12/10 02:15:28;;;;;;;2.30;1.20;;;7.80;77.80;7.00;95163.00;;;;5072968;28;20191;-63
2023/12/10 02:17:59;;;;;;;0.80;0.80;;;7.80;78.20;6.90;95134.00;;;;5073131;28;20547;-62
2023/12/10 02:20:26;;;;;;;1.13;0.90;;;7.80;79.30;6.90;95147.00;;;;5073215;28;20627;-62
2023/12/10 02:23:04;;;;;;;0.97;0.90;;;7.70;81.30;6.60;95158.00;;;;5072802;28;20289;-62
2023/12/10 02:25:34;;;;;;;8.10;1.13;;;7.50;82.60;6.40;95158.00;;;;5073270;28;20240;-63
2023/12/10 02:28:03;;;;;;;0.83;0.83;;;7.30;84.20;6.60;95138.00;;;;5073191;28;20553;-63
2023/12/10 02:30:31;;;;;;;1.03;1.03;;;7.40;84.70;6.50;95142.00;;;;5072962;28;20226;-62
2023/12/10 02:33:01;;;;;;;1.60;1.40;;;7.40;85.60;6.60;95165.00;;;;5072795;28;20255;-62
2023/12/10 02:35:28;;;;;;;0.50;0.50;;;7.20;82.90;6.20;95191.00;;;;5072914;28;20186;-62
2023/12/10 02:37:56;;;;;;;0.50;0.50;;;;;6.10;95160.00;;;;5073023;28;20190;-62
2023/12/10 02:40:24;;;;;;;0.93;0.93;;;;;6.00;95175.00;;;;5072819;28;20196;-62
2023/12/10 02:42:53;;;;;;;1.33;1.33;;;;;6.10;95192.00;;;;5072782;28;20221;-62
2023/12/10 02:45:20;;;;;;;0.50;0.50;;;;;6.20;95175.00;;;;5072992;28;20202;-62
2023/12/10 02:47:48;;;;;;;0.60;0.60;;;;;6.30;95192.00;;;;5072803;28;20198;-61
2023/12/10 02:50:15;;;;;;;1.37;1.27;;;;;6.40;95211.00;;;;5072708;28;20226;-61
2023/12/10 02:52:42;;;;;;;2.40;1.07;;;;;6.40;95191.00;;;;5072707;28;20223;-61
2023/12/10 02:55:10;;;;;;;0.70;0.70;;;;;6.50;95185.00;;;;5071437;28;20195;-62
2023/12/10 02:57:38;;;;;;;3.83;2.40;;;7.30;77.90;6.60;95219.00;;;;5073004;28;20195;-62
2023/12/10 03:00:08;;;;;;;1.60;0.90;;;7.30;78.20;6.60;95218.00;;;;5073103;28;20227;-62
2023/12/10 03:02:35;;;;;;;1.03;1.03;;;7.40;79.40;6.60;95225.00;;;;5072680;28;20214;-62
2023/12/10 03:05:03;;;;;;;3.30;1.27;;;;;6.60;95245.00;;;;5072643;28;20194;-62
2023/12/10 03:07:30;;;;;;;11.77;2.50;;;7.40;75.70;6.60;95234.00;;;;5072588;28;20206;-62
2023/12/10 03:09:57;;;;;;;0.60;0.60;;;7.40;76.00;6.60;95253.00;;;;5072431;28;20218;-62
2023/12/10 03:12:24;;;;;;;1.40;1.33;;;7.30;76.30;6.60;95260.00;;;;5072450;28;20211;-62
2023/12/10 03:14:51;;;;;;;2.23;1.20;;;7.30;75.50;6.50;95240.00;;;;5075015;28;20229;-61
2023/12/10 03:17:20;;;;;;;1.00;1.00;;;7.40;74.70;6.60;95273.00;;;;5075950;28;20594;-62
2023/12/10 03:19:47;;;;;;;0.60;0.60;;;7.40;85.30;6.60;95272.00;;;;5076016;28;20218;-62
2023/12/10 03:22:14;;;;;;;2.93;1.23;;;7.50;72.10;6.70;95263.00;;;;5075843;28;20211;-62
2023/12/10 03:24:41;;;;;;;2.13;1.47;;;;;6.70;95270.00;;;;5075848;28;20191;-62
2023/12/10 03:27:09;;;;;;;0.67;0.67;;;7.50;70.70;6.70;95255.00;;;;5075867;28;20548;-62
2023/12/10 03:29:36;;;;;;;3.60;1.37;;;7.40;70.30;6.60;95266.00;;;;5074416;28;20195;-62
2023/12/10 03:32:03;;;;;;;1.00;1.00;;;7.50;70.90;6.70;95268.00;;;;5075597;28;20225;-62
2023/12/10 03:34:32;;;;;;;1.57;1.17;;;7.50;69.40;6.70;95282.00;;;;5075967;28;20191;-62
2023/12/10 03:36:59;;;;;;;21.37;1.87;;;7.50;70.30;6.60;95281.00;;;;5075779;28;20192;-62
2023/12/10 03:39:26;;;;;;;0.77;0.77;;;7.40;70.80;6.80;95273.00;;;;5075493;28;20201;-62
2023/12/10 03:41:54;;;;;;;0.50;0.50;;;7.50;71.60;6.70;95283.00;;;;5075317;28;20712;-62
2023/12/10 03:44:21;;;;;;;0.70;0.70;;;7.50;69.70;6.70;95277.00;;;;5075455;28;20197;-62
2023/12/10 03:46:48;;;;;;;0.60;0.60;;;7.50;70.80;6.80;95283.00;;;;5075296;28;20197;-62
2023/12/10 03:49:17;;;;;;;1.13;1.13;;;7.50;70.40;6.70;95286.00;;;;5075408;28;20193;-62
2023/12/10 03:51:45;;;;;;;11.80;0.83;;;7.50;69.60;6.60;95290.00;;;;5075311;28;20745;-62
2023/12/10 03:54:13;;;;;;;1.00;1.00;;;7.50;69.70;6.70;95297.00;;;;5075396;28;20197;-62
2023/12/10 03:56:40;;;;;;;0.87;0.87;;;7.50;70.10;6.70;95305.00;;;;5075203;28;20187;-62
2023/12/10 03:59:07;;;;;;;1.40;1.30;;;7.50;68.60;6.70;95309.00;;;;5075473;28;20198;-62
2023/12/10 04:01:34;;;;;;;1.73;1.63;;;7.50;68.20;6.70;95319.00;;;;5075395;28;20215;-62
2023/12/10 04:04:01;;;;;;;0.90;0.90;;;7.50;68.50;6.70;95305.00;;;;5076077;28;20217;-61
2023/12/10 04:06:28;;;;;;;0.70;0.70;;;;;6.70;95320.00;;;;5075325;28;20203;-61
2023/12/10 04:08:57;;;;;;;0.50;0.50;;;7.50;69.10;6.70;95299.00;;;;5075531;28;20265;-61
2023/12/10 04:11:24;;;;;;;1.50;1.40;;;7.40;68.90;6.60;95303.00;;;;5075435;28;20217;-61
2023/12/10 04:13:52;;;;;;;5.10;2.23;;;7.40;68.80;6.60;95300.00;;;;5075596;28;20274;-61
2023/12/10 04:16:26;;;;;;;3.30;1.63;;;;;6.60;95314.00;;;;5075104;28;20191;-62
2023/12/10 04:18:54;;;;;;;2.90;1.57;;;;;6.70;95345.00;;;;5074993;28;20199;-62
2023/12/10 04:21:23;;;;;;;0.70;0.70;;;;;6.70;95317.00;;;;5073496;28;20193;-61
2023/12/10 04:23:53;;;;;;;1.47;1.30;;;;;6.60;95316.00;;;;5074884;28;20203;-62
2023/12/10 04:26:22;;;;;;;1.30;1.20;;;;;6.60;95318.00;;;;5074760;28;20511;-62
2023/12/10 04:28:50;;;;;;;8.93;1.50;;;;;6.60;95321.00;;;;5073353;28;20199;-61
2023/12/10 04:31:17;;;;;;;5.10;1.63;;;;;6.50;95344.00;;;;5074395;28;20225;-62
2023/12/10 04:33:45;;;;;;;0.80;0.80;;;;;6.60;95314.00;;;;5074569;28;20198;-62
2023/12/10 04:36:13;;;;;;;3.30;1.07;;;;;6.50;95367.00;;;;5074620;28;20564;-61
2023/12/10 04:38:41;;;;;;;0.90;0.90;;;;;6.50;95353.00;;;;5074516;28;20199;-62
2023/12/10 04:41:08;;;;;;;7.77;3.53;;;;;6.50;95337.00;;;;5074360;28;20190;-61
2023/12/10 04:43:37;;;;;;;1.60;1.20;;;;;6.50;95326.00;;;;5073063;28;20683;-61
2023/12/10 04:46:05;;;;;;;1.30;1.07;;;;;6.50;95327.00;;;;5074784;28;20200;-62
2023/12/10 04:48:33;;;;;;;1.17;1.17;;;;;6.50;95332.00;;;;5074770;28;20621;-61
2023/12/10 04:51:00;;;;;;;2.07;1.87;;;;;6.50;95340.00;;;;5074470;28;20316;-62
2023/12/10 04:53:28;;;;;;;1.00;1.00;;;;;6.60;95337.00;;;;5074109;28;20218;-62
2023/12/10 04:55:55;;;;;;;0.60;0.60;;;;;6.60;95335.00;;;;5073967;28;20203;-61
2023/12/10 04:58:23;;;;;;;2.10;1.43;;;;;6.60;95330.00;;;;5073903;28;20648;-61
2023/12/10 05:00:51;;;;;;;1.60;1.07;;;;;6.50;95334.00;;;;5073848;28;20189;-61
2023/12/10 05:03:19;;;;;;;1.20;1.10;;;;;6.60;95351.00;;;;5072392;28;20218;-61
2023/12/10 05:05:46;;;;;;;1.43;1.33;;;;;6.70;95366.00;;;;5073810;28;20560;-61
2023/12/10 05:08:14;;;;;;;3.90;1.60;;;;;6.60;95374.00;;;;5073107;28;20197;-61
2023/12/10 05:10:41;;;;;;;0.80;0.80;;;;;6.60;95352.00;;;;5074550;28;20702;-61
2023/12/10 05:13:09;;;;;;;0.90;0.90;;;;;6.60;95354.00;;;;5073684;28;20210;-62
2023/12/10 05:15:36;;;;;;;4.03;1.73;;;;;6.60;95334.00;;;;5074399;28;20658;-61
2023/12/10 05:18:05;;;;;;;3.20;1.47;;;;;6.60;95365.00;;;;5073904;28;20195;-61
2023/12/10 05:20:33;;;;;;;1.10;1.10;;;;;6.50;95362.00;;;;5074022;28;20208;-61
2023/12/10 05:23:01;;;;;;;0.80;0.80;;;;;6.50;95387.00;;;;5073557;28;20212;-61
2023/12/10 05:25:30;;;;;;;7.83;1.30;;;;;6.60;95373.00;;;;5073970;28;20683;-61
2023/12/10 05:27:59;;;;;;;8.70;1.37;;;;;6.50;95345.00;;;;5073789;28;20190;-61
2023/12/10 05:30:27;;;;;;;0.60;0.60;;;;;6.50;95363.00;;;;5073683;28;20232;-61
2023/12/10 05:32:54;;;;;;;0.60;0.60;;;;;6.50;95390.00;;;;5073641;28;20215;-61
2023/12/10 05:35:23;;;;;;;1.50;1.10;;;;;6.50;95382.00;;;;5073502;28;20286;-61
2023/12/10 05:37:51;;;;;;;2.10;1.00;;;;;6.60;95381.00;;;;5073201;28;20244;-62
2023/12/10 05:40:18;;;;;;;0.97;0.97;;;;;6.50;95379.00;;;;5073316;28;20556;-62
2023/12/10 05:42:45;;;;;;;1.70;1.07;;;;;6.60;95391.00;;;;5073349;28;20225;-62
2023/12/10 05:45:13;;;;;;;0.53;0.53;;;;;6.60;95380.00;;;;5073693;28;20193;-61
2023/12/10 05:47:40;;;;;;;0.80;0.80;;;;;6.60;95387.00;;;;5073493;28;20274;-62
2023/12/10 05:50:08;;;;;;;1.33;1.23;;;;;6.60;95404.00;;;;5073715;28;20197;-62
2023/12/10 05:52:37;;;;;;;1.97;0.87;;;;;6.60;95395.00;;;;5073346;28;20605;-61
2023/12/10 05:55:06;;;;;;;2.30;1.43;;;;;6.50;95396.00;;;;5071906;28;20209;-61
2023/12/10 05:57:33;;;;;;;1.33;1.23;;;;;6.50;95393.00;;;;5073253;28;20561;-61
2023/12/10 06:00:01;;;;;;;7.23;1.70;;;;;6.50;95391.00;;;;5071962;28;20204;-61
2023/12/10 06:02:28;;;;;;;1.27;1.20;;;;;6.50;95408.00;;;;5073220;28;20207;-61
2023/12/10 06:04:56;;;;;;;2.87;1.37;;;;;6.50;95412.00;;;;5073083;28;20191;-61
2023/12/10 06:07:23;;;;;;;1.40;1.30;;;;;6.40;95420.00;;;;5073043;28;20199;-61
2023/12/10 06:09:54;;;;;;;0.60;0.60;;;;;6.50;95435.00;;;;5073065;28;20191;-61
2023/12/10 06:12:21;;;;;;;6.83;1.27;;;;;6.60;95425.00;;;;5073244;28;20693;-61
2023/12/10 06:14:48;;;;;;;0.50;0.50;;;;;6.60;95446.00;;;;5073236;28;20190;-61
2023/12/10 06:17:16;;;;;;;3.57;1.23;;;;;6.50;95435.00;;;;5073162;28;20693;-61
2023/12/10 06:19:43;;;;;;;0.97;0.97;;;;;6.50;95444.00;;;;5073202;28;20195;-61
2023/12/10 06:22:13;;;;;;;1.40;1.27;;;;;6.60;95447.00;;;;5073072;28;20686;-61
2023/12/10 06:24:41;;;;;;;0.60;0.60;;;;;6.60;95450.00;;;;5073001;28;20194;-61
2023/12/10 06:27:12;;;;;;;1.17;1.07;;;;;6.60;95450.00;;;;5073331;28;20196;-61
2023/12/10 06:29:41;;;;;;;0.50;0.50;;;;;6.50;95448.00;;;;5073357;28;20193;-61
2023/12/10 06:32:08;;;;;;;1.17;1.17;;;;;6.40;95463.00;;;;5073252;28;20233;-61
2023/12/10 06:34:38;;;;;;;0.60;0.60;;;;;6.40;95477.00;;;;5073217;28;20223;-62
2023/12/10 06:37:05;;;;;;;1.03;1.03;;;;;6.40;95495.00;;;;5073144;28;20191;-62
2023/12/10 06:39:33;;;;;;;0.77;0.77;;;;;6.40;95483.00;;;;5072876;28;20274;-61
2023/12/10 06:42:00;;;;;;;0.97;0.97;;;;;6.40;95480.00;;;;5071506;28;20222;-61
2023/12/10 06:44:29;;;;;;;3.07;0.97;;;;;6.50;95482.00;;;;5072893;28;20533;-61
2023/12/10 06:46:56;;;;;;;1.00;1.00;;;;;6.40;95492.00;;;;5072920;28;20191;-61
2023/12/10 06:49:23;;;;;;;0.60;0.60;;;;;6.40;95499.00;;;;5074790;28;20274;-61
2023/12/10 06:51:51;;;;;;;0.50;0.50;;;;;6.40;95497.00;;;;5076923;28;20516;-61
2023/12/10 06:54:18;;;;;;;4.10;2.60;;;;;6.50;95496.00;;;;5076615;28;20204;-61
2023/12/10 06:56:45;;;;;;;1.27;1.17;;;;;6.60;95499.00;;;;5076802;28;20198;-61
2023/12/10 06:59:13;;;;;;;2.70;1.23;;;;;6.60;95521.00;;;;5077186;28;20201;-61
2023/12/10 07:01:42;;;;;;;2.67;1.10;;;;;6.60;95521.00;;;;5076491;28;20204;-62
2023/12/10 07:04:09;;;;;;;3.40;1.00;;;;;6.60;95530.00;;;;5076576;28;20187;-61
2023/12/10 07:06:37;;;;;;;3.03;0.97;;;;;6.70;95518.00;;;;5076393;28;20213;-61
2023/12/10 07:09:06;;;;;;;0.87;0.87;;;;;6.70;95532.00;;;;5076529;28;20277;-62
2023/12/10 07:11:34;;;;;;;0.67;0.67;;;;;6.60;95537.00;;;;5076227;28;20298;-62
2023/12/10 07:14:01;;;;;;;0.80;0.80;;;;;6.50;95536.00;;;;5076296;28;20190;-61
2023/12/10 07:16:29;;;;;;;0.80;0.80;;;;;6.70;95549.00;;;;5076373;28;20564;-61
2023/12/10 07:18:57;;;;;;;0.70;0.70;;;;;6.70;95544.00;;;;5076598;28;20249;-61
2023/12/10 07:21:25;;;;;;;0.50;0.50;;;;;6.70;95547.00;;;;5076259;28;20183;-62
2023/12/10 07:23:52;;;;;;;1.33;1.27;;;;;6.60;95553.00;;;;5076364;28;20206;-62
2023/12/10 07:26:23;;;;;;;9.53;2.03;;;;;6.70;95545.00;;;;5076317;28;20203;-62
2023/12/10 07:28:51;;;;;;;0.50;0.50;;;;;6.80;95552.00;;;;5076431;28;20186;-61
2023/12/10 07:31:18;;;;;;;7.00;1.20;;;;;6.80;95576.00;;;;5075874;28;20277;-62
2023/12/10 07:33:46;;;;;;;2.00;1.27;;;;;6.80;95565.00;;;;5076087;28;20358;-62
2023/12/10 07:36:15;;;;;;;1.20;1.10;;;;;6.90;95570.00;;;;5075965;28;20257;-62
2023/12/10 07:38:42;;;;;;;0.93;0.93;;;;;6.70;95567.00;;;;5075949;28;20195;-61
2023/12/10 07:41:10;;;;;;;1.10;1.00;;;;;6.80;95597.00;;;;5076110;28;20569;-62
2023/12/10 07:43:37;;;;;;;0.70;0.70;;;;;6.70;95598.00;;;;5075823;28;20244;-62
2023/12/10 07:46:05;;;;;;;8.43;0.80;;;;;6.90;95601.00;;;;5075774;28;20258;-62
2023/12/10 07:48:33;;;;;;;0.70;0.70;;;;;6.90;95594.00;;;;5075647;28;20638;-62
2023/12/10 07:51:01;;;;;;;0.90;0.90;;;;;6.80;95592.00;;;;5075552;28;20312;-62
2023/12/10 07:53:30;;;;;;;0.60;0.60;;;;;6.90;95595.00;;;;5076072;28;20229;-61
2023/12/10 07:55:57;;;;;;;1.80;1.40;;;;;6.90;95614.00;;;;5075471;28;20196;-62
2023/12/10 07:58:25;;;;;;;1.43;1.33;;;;;7.00;95598.00;;;;5075586;28;20187;-61
2023/12/10 08:00:52;;;;;;;0.60;0.60;;;;;6.80;95614.00;;;;5075114;28;20188;-61
2023/12/10 08:03:19;;;;;;;1.90;1.37;;;;;6.90;95604.00;;;;5075264;28;20288;-61
2023/12/10 08:05:47;;;;;;;0.50;0.50;;;;;6.90;95617.00;;;;5075924;28;20572;-62
2023/12/10 08:08:14;;;;;;;1.07;1.00;;;;;6.90;95628.00;;;;5075765;28;20192;-62
2023/12/10 08:10:43;;;;;;;0.80;0.80;;;;;7.10;95638.00;;;;5075027;28;20191;-62
2023/12/10 08:13:11;;;;;;;1.37;1.27;;;;;7.10;95618.00;;;;5075154;28;20226;-62
2023/12/10 08:15:38;;;;;;;6.33;1.37;;;;;7.10;95634.00;;;;5075210;28;20274;-62
2023/12/10 08:18:09;;;;;;;6.17;1.23;;;;;6.90;95646.00;;;;5075037;28;20282;-62
2023/12/10 08:20:36;;;;;;;1.20;1.10;;;;;6.90;95645.00;;;;5074953;28;20207;-62
2023/12/10 08:23:04;;;;;;;1.23;1.23;;;;;6.90;95653.00;;;;5073490;28;20218;-62
2023/12/10 08:25:31;;;;;;;0.90;0.90;;;;;6.90;95642.00;;;;5075298;28;20206;-62
2023/12/10 08:28:00;;;;;;;0.77;0.77;;;;;6.70;95649.00;;;;5074916;28;20272;-62
2023/12/10 08:30:28;;;;;;;2.37;1.70;;;;;6.90;95651.00;;;;5074897;28;20214;-62
2023/12/10 08:32:55;;;;;;;1.67;1.57;;;;;7.10;95653.00;;;;5074752;28;20228;-62
2023/12/10 08:35:23;;;;;;;0.90;0.90;;;;;7.00;95657.00;;;;5074795;28;20194;-62
2023/12/10 08:37:50;;;;;;;0.90;0.90;;;;;7.10;95639.00;;;;5074972;28;20198;-62
2023/12/10 08:40:18;;;;;;;3.20;1.53;;;;;6.90;95633.00;;;;5074837;28;20192;-62
2023/12/10 08:42:46;;;;;;;1.30;0.97;;;;;6.90;95648.00;;;;5074711;28;20207;-62
2023/12/10 08:45:15;;;;;;;0.80;0.80;;;;;6.80;95652.00;;;;5074893;28;20198;-62
2023/12/10 08:47:43;;;;;;;1.53;1.13;;;;;6.80;95631.00;;;;5074666;28;20223;-62
2023/12/10 08:50:10;;;;;;;1.60;0.70;;;;;6.80;95636.00;;;;5074961;28;20669;-62
2023/12/10 08:52:38;;;;;;;2.90;2.00;;;;;6.50;95639.00;;;;5074796;28;20218;-62
2023/12/10 08:55:06;;;;;;;9.10;1.20;;;;;6.40;95643.00;;;;5074701;28;20183;-62
2023/12/10 08:57:34;;;;;;;1.07;1.07;;;;;6.40;95651.00;;;;5074411;28;20194;-62
2023/12/10 09:00:02;;;;;;;1.07;1.07;;;;;6.30;95632.00;;;;5074846;28;20191;-61
2023/12/10 09:02:31;;;;;;;0.80;0.80;;;;;6.40;95652.00;;;;5074369;28;20310;-61
2023/12/10 09:04:59;;;;;;;0.80;0.80;;;;;6.50;95662.00;;;;5074102;28;20187;-60
2023/12/10 09:07:27;;;;;;;1.20;1.20;;;;;6.40;95663.00;;;;5073966;28;20199;-60
2023/12/10 09:09:59;;;;;;;1.07;1.07;;;;;6.20;95685.00;;;;5074342;28;20654;-61
2023/12/10 09:12:27;;;;;;;1.20;0.80;;;;;6.30;95670.00;;;;5073390;28;20221;-61
2023/12/10 09:14:55;;;;;;;6.23;2.20;;;;;6.40;95669.00;;;;5073794;28;20191;-60
2023/12/10 09:17:22;;;;;;;5.67;1.47;;;;;6.70;95689.00;;;;5073985;28;20191;-61
2023/12/10 09:19:51;;;;;;;1.00;1.00;;;;;6.60;95686.00;;;;5074022;28;20190;-60
2023/12/10 09:22:19;;;;;;;0.80;0.80;;;;;6.60;95686.00;;;;5073875;28;20291;-60
2023/12/10 09:24:46;;;;;;;5.00;2.07;;;;;6.40;95706.00;;;;5073685;28;20203;-62
2023/12/10 09:27:14;;;;;;;0.50;0.50;;;;;6.20;95700.00;;;;5074048;28;20563;-61
2023/12/10 09:29:42;;;;;;;0.77;0.77;;;;;6.10;95715.00;;;;5073747;28;20560;-61
2023/12/10 09:32:09;;;;;;;0.63;0.63;;;;;6.20;95721.00;;;;5073394;28;20310;-62
2023/12/10 09:34:38;;;;;;;0.60;0.60;;;;;6.20;95706.00;;;;5073704;28;20663;-62
2023/12/10 09:37:08;;;;;;;0.93;0.93;;;;;6.00;95722.00;;;;5073527;28;20191;-62
2023/12/10 09:39:36;;;;;;;1.00;1.00;;;;;5.90;95727.00;;;;5072196;28;20199;-61
2023/12/10 09:42:04;;;;;;;6.10;0.80;;;;;6.00;95739.00;;;;5073356;28;20251;-62
2023/12/10 09:44:32;;;;;;;1.03;0.93;;;;;6.00;95743.00;;;;5073417;28;20190;-61
2023/12/10 09:47:00;;;;;;;0.87;0.87;;;;;6.20;95725.00;;;;5073520;28;20195;-61
2023/12/10 09:49:30;;;;;;;1.07;1.00;;;;;6.30;95723.00;;;;5073796;28;20360;-61
2023/12/10 09:51:57;;;;;;;0.90;0.90;;;;;5.90;95721.00;;;;5073061;28;20674;-61
2023/12/10 09:54:27;;;;;;;1.23;1.13;;;;;5.90;95709.00;;;;5072001;28;20198;-61
2023/12/10 09:56:55;;;;;;;0.97;0.97;;;;;6.00;95717.00;;;;5073167;28;20274;-61
2023/12/10 09:59:22;;;;;;;2.03;1.20;;;;;6.10;95725.00;;;;5074113;28;20569;-63
2023/12/10 10:01:50;;;;;;;1.27;1.17;;;;;6.20;95724.00;;;;5074713;28;20216;-63
2023/12/10 10:04:18;;;;;;;0.60;0.60;;;;;6.20;95725.00;;;;5074608;28;20187;-63
2023/12/10 10:06:45;;;;;;;0.60;0.60;;;;;6.30;95719.00;;;;5074105;28;20204;-63
2023/12/10 10:09:13;;;;;;;0.80;0.80;;;;;6.20;95715.00;;;;5073209;28;20198;-64
2023/12/10 10:11:47;;;;;;;2.33;0.90;;;;;6.40;95714.00;;;;5072727;28;20221;-62
2023/12/10 10:14:16;;;;;;;3.60;1.37;;;;;6.40;95695.00;;;;5074698;28;20262;-62
2023/12/10 10:16:49;;;;;;;0.70;0.70;;;;;6.40;95699.00;;;;5075013;28;20278;-62
2023/12/10 10:19:16;;;;;;;0.70;0.70;;;;;6.50;95694.00;;;;5073949;28;20179;-62
2023/12/10 10:21:45;;;;;;;0.50;0.50;;;;;6.40;95698.00;;;;5074027;28;20211;-63
2023/12/10 10:24:13;;;;;;;1.00;1.00;;;;;6.70;95682.00;;;;5078219;28;20192;-62
2023/12/10 10:26:43;;;;;;;1.23;1.23;;;;;6.70;95689.00;;;;5079029;28;20601;-62
2023/12/10 10:29:11;;;;;;;1.10;1.03;;;;;6.80;95683.00;;;;5078880;28;20247;-62
2023/12/10 10:31:38;;;;;;;17.83;1.23;;;7.50;79.60;6.80;95678.00;;;;5077482;28;20241;-62
2023/12/10 10:34:06;;;;;;;0.70;0.70;;;7.50;78.10;6.70;95683.00;;;;5078091;28;20301;-62
2023/12/10 10:36:34;;;;;;;0.50;0.50;;;7.50;78.40;6.90;95671.00;;;;5077829;28;20197;-62
2023/12/10 10:39:01;;;;;;;0.80;0.80;;;;;6.80;95676.00;;;;5077966;28;20753;-63
2023/12/10 10:41:29;;;;;;;0.87;0.87;;;;;6.90;95683.00;;;;5077470;28;21765;-62
2023/12/10 10:43:58;;;;;;;0.83;0.80;;;7.50;76.60;6.70;95683.00;;;;5077245;28;20712;-63
2023/12/10 10:46:26;;;;;;;2.40;2.20;;;;;6.90;95684.00;;;;5077260;28;20190;-63
2023/12/10 10:48:55;;;;;;;3.03;1.30;;;;;6.70;95685.00;;;;5077935;28;20194;-63
2023/12/10 10:51:27;;;;;;;8.90;0.80;;;7.40;76.30;6.80;95676.00;;;;5076777;28;20215;-62
2023/12/10 10:53:56;;;;;;;1.60;1.20;;;7.50;78.00;6.80;95669.00;;;;5077225;28;20625;-62
2023/12/10 10:56:25;;;;;;;1.60;1.37;;;;;6.80;95677.00;;;;5077436;28;20222;-62
2023/12/10 10:58:52;;;;;;;1.00;1.00;;;7.70;76.50;6.90;95654.00;;;;5076775;28;20279;-62
2023/12/10 11:01:41;;;;;;;2.37;1.57;;;7.70;75.30;6.90;95660.00;;;;5076569;28;20214;-63
2023/12/10 11:04:12;;;;;;;2.97;2.20;;;;;7.20;95645.00;;;;5077201;28;20183;-62
2023/12/10 11:06:41;;;;;;;1.10;1.10;;;7.80;74.90;7.20;95649.00;;;;5077116;28;20203;-62
2023/12/10 11:09:08;;;;;;;3.70;1.20;;;7.90;76.10;7.00;95650.00;;;;5077199;28;20198;-62
2023/12/10 11:11:39;;;;;;;0.70;0.70;;;7.60;76.00;6.80;95665.00;;;;5077069;28;20216;-62
2023/12/10 11:14:21;;;;;;;0.77;0.77;;;7.60;76.80;6.60;95685.00;;;;5076925;28;20589;-62
2023/12/10 11:17:01;;;;;;;4.93;2.07;;;7.30;78.50;6.50;95673.00;;;;5077121;28;20190;-63
2023/12/10 11:19:31;;;;;;;0.70;0.70;;;7.40;79.00;6.60;95674.00;;;;5077148;28;20203;-63
2023/12/10 11:21:59;;;;;;;5.10;0.83;;;7.40;79.70;6.80;95684.00;;;;5076187;28;20257;-63
2023/12/10 11:24:26;;;;;;;0.60;0.60;;;;;6.70;95678.00;;;;5076563;28;20530;-63
2023/12/10 11:26:53;;;;;;;4.73;2.60;;;7.50;78.80;6.80;95678.00;;;;5076300;28;20219;-63
2023/12/10 11:29:21;;;;;;;1.30;1.30;;;7.50;80.40;7.00;95678.00;;;;5076660;28;20187;-63
2023/12/10 11:31:48;;;;;;;2.13;1.13;;;7.50;78.60;6.80;95672.00;;;;5076266;28;20269;-63
2023/12/10 11:34:16;;;;;;;1.13;1.03;;;7.50;79.50;6.70;95663.00;;;;5075577;28;20313;-63
2023/12/10 11:36:48;;;;;;;5.63;1.27;;;;;6.50;95687.00;;;;5076303;28;20187;-64
2023/12/10 11:39:16;;;;;;;1.70;1.60;;;7.40;79.70;6.80;95660.00;;;;5076507;28;20204;-63
2023/12/10 11:41:45;;;;;;;1.60;1.57;;;;;7.00;95645.00;;;;5076207;28;20238;-63
2023/12/10 11:44:12;;;;;;;1.33;1.10;;;;;7.20;95636.00;;;;5076114;28;20659;-63
2023/12/10 11:46:40;;;;;;;0.77;0.77;;;8.00;76.10;7.60;95604.00;;;;5075978;28;20693;-63
2023/12/10 11:49:09;;;;;;;0.80;0.80;;;8.20;76.60;8.40;95579.00;;;;5076405;28;20193;-63
2023/12/10 11:51:40;;;;;;;0.90;0.90;;;9.20;71.00;8.90;95622.00;;;;5075950;28;20215;-63
2023/12/10 11:54:08;;;;;;;1.23;0.70;;;9.30;70.00;8.40;95637.00;;;;5076059;28;20203;-63
2023/12/10 11:56:36;;;;;;;1.80;1.00;;;;;8.00;95629.00;;;;5075890;28;20184;-63
2023/12/10 11:59:04;;;;;;;0.90;0.90;;;8.70;70.00;7.70;95642.00;;;;5075811;28;20215;-63
2023/12/10 12:01:32;;;;;;;1.00;0.90;;;8.50;70.70;7.70;95648.00;;;;5075973;28;20566;-63